createdAt,value
2018-04-28T00:00:31.113Z,15.38
2018-04-28T00:04:33.560Z,15.34
2018-04-28T00:08:36.033Z,15.30
2018-04-28T00:12:38.512Z,15.25
2018-04-28T00:16:47.703Z,15.21
2018-04-28T00:20:50.152Z,15.09
2018-04-28T00:29:21.559Z,14.89
2018-04-28T00:33:24.038Z,14.85
2018-04-28T00:37:27.258Z,14.84
2018-04-28T00:41:31.348Z,14.76
2018-04-28T00:50:18.391Z,14.63
2018-04-28T00:54:26.663Z,14.60
2018-04-28T00:58:31.088Z,14.55
2018-04-28T01:02:33.579Z,14.47
2018-04-28T01:06:36.054Z,14.43
2018-04-28T01:10:38.506Z,14.40
2018-04-28T01:14:43.774Z,14.38
2018-04-28T01:18:52.692Z,14.37
2018-04-28T01:22:55.970Z,14.37
2018-04-28T01:31:28.321Z,14.23
2018-04-28T01:35:31.615Z,14.22
2018-04-28T01:39:42.085Z,14.19
2018-04-28T01:43:48.591Z,14.11
2018-04-28T01:47:58.754Z,14.09
2018-04-28T01:52:11.186Z,14.02
2018-04-28T01:56:22.294Z,13.99
2018-04-28T02:00:44.468Z,13.97
2018-04-28T02:04:52.456Z,13.94
2018-04-28T02:09:14.424Z,13.88
2018-04-28T02:17:57.522Z,13.67
2018-04-28T02:26:44.837Z,13.54
2018-04-28T02:30:54.197Z,13.49
2018-04-28T02:35:00.592Z,13.48
2018-04-28T02:43:50.817Z,13.41
2018-04-28T02:48:06.614Z,13.38
2018-04-28T02:52:18.128Z,13.35
2018-04-28T02:56:27.184Z,13.28
2018-04-28T03:00:33.215Z,13.25
2018-04-28T03:04:44.568Z,13.21
2018-04-28T03:08:49.980Z,13.12
2018-04-28T03:12:52.458Z,13.12
2018-04-28T03:16:57.830Z,13.10
2018-04-28T03:21:00.322Z,13.08
2018-04-28T03:25:05.315Z,13.05
2018-04-28T03:29:09.560Z,13.04
2018-04-28T03:38:22.640Z,12.99
2018-04-28T03:42:37.279Z,13.00
2018-04-28T03:46:39.831Z,13.03
2018-04-28T03:50:50.917Z,13.06
2018-04-28T03:54:57.263Z,13.03
2018-04-28T03:59:11.581Z,12.99
2018-04-28T04:03:18.989Z,12.96
2018-04-28T04:07:23.308Z,12.94
2018-04-28T04:16:14.613Z,12.93
2018-04-28T04:25:09.588Z,12.76
2018-04-28T04:29:32.871Z,12.74
2018-04-28T04:33:41.284Z,12.71
2018-04-28T04:42:40.730Z,12.73
2018-04-28T04:46:59.428Z,12.79
2018-04-28T04:51:05.542Z,12.85
2018-04-28T04:55:09.945Z,12.90
2018-04-28T05:04:12.744Z,13.05
2018-04-28T05:08:27.128Z,13.19
2018-04-28T05:12:40.268Z,13.37
2018-04-28T05:16:46.131Z,13.55
2018-04-28T05:20:57.111Z,13.75
2018-04-28T05:25:11.179Z,13.93
2018-04-28T05:29:34.262Z,14.11
2018-04-28T05:33:53.777Z,14.34
2018-04-28T05:42:56.675Z,14.83
2018-04-28T05:47:10.868Z,15.08
2018-04-28T05:51:30.813Z,15.27
2018-04-28T05:55:40.666Z,15.48
2018-04-28T05:59:51.007Z,15.72
2018-04-28T06:04:05.474Z,15.84
2018-04-28T06:13:07.574Z,16.14
2018-04-28T06:21:44.672Z,16.44
2018-04-28T06:25:47.176Z,16.59
2018-04-28T06:29:49.629Z,16.76
2018-04-28T06:33:52.106Z,16.89
2018-04-28T06:37:54.592Z,17.04
2018-04-28T06:41:57.093Z,17.10
2018-04-28T06:45:59.551Z,17.25
2018-04-28T06:50:02.027Z,17.34
2018-04-28T06:54:04.514Z,17.46
2018-04-28T06:58:06.982Z,17.62
2018-04-28T07:02:09.453Z,17.75
2018-04-28T07:06:11.979Z,17.85
2018-04-28T07:10:14.469Z,17.94
2018-04-28T07:14:16.941Z,18.03
2018-04-28T07:18:19.491Z,18.13
2018-04-28T07:22:22.128Z,18.32
2018-04-28T07:26:24.685Z,18.47
2018-04-28T07:30:27.223Z,18.62
2018-04-28T07:34:29.706Z,18.77
2018-04-28T07:38:32.191Z,18.88
2018-04-28T07:42:34.726Z,19.06
2018-04-28T07:46:37.219Z,19.16
2018-04-28T07:50:39.709Z,19.26
2018-04-28T07:54:42.197Z,19.34
2018-04-28T07:58:44.653Z,19.51
2018-04-28T08:02:47.131Z,19.61
2018-04-28T08:06:49.620Z,19.75
2018-04-28T08:10:52.081Z,19.97
2018-04-28T08:14:54.567Z,20.16
2018-04-28T08:18:57.056Z,20.14
2018-04-28T08:22:59.533Z,20.24
2018-04-28T08:27:02.008Z,20.39
2018-04-28T08:31:04.510Z,20.51
2018-04-28T08:35:06.990Z,20.57
2018-04-28T08:39:09.492Z,20.64
2018-04-28T08:43:11.979Z,20.76
2018-04-28T08:47:14.473Z,20.88
2018-04-28T08:51:16.967Z,21.05
2018-04-28T08:55:19.451Z,21.20
2018-04-28T08:59:21.932Z,21.35
2018-04-28T09:03:25.427Z,21.32
2018-04-28T09:07:39.714Z,21.50
2018-04-28T09:11:42.198Z,21.64
2018-04-28T09:15:44.739Z,21.84
2018-04-28T09:19:47.186Z,21.98
2018-04-28T09:23:49.690Z,22.11
2018-04-28T09:27:52.236Z,22.16
2018-04-28T09:31:54.739Z,22.25
2018-04-28T09:35:57.215Z,22.40
2018-04-28T09:39:59.699Z,22.53
2018-04-28T09:44:02.179Z,22.61
2018-04-28T09:48:04.656Z,22.74
2018-04-28T09:52:07.134Z,22.85
2018-04-28T09:56:09.607Z,22.95
2018-04-28T10:00:24.963Z,23.05
2018-04-28T10:04:27.452Z,23.12
2018-04-28T10:08:29.894Z,23.23
2018-04-28T10:12:32.392Z,23.13
2018-04-28T10:16:34.847Z,23.18
2018-04-28T10:20:37.556Z,23.25
2018-04-28T10:24:40.037Z,23.31
2018-04-28T10:28:42.491Z,23.42
2018-04-28T10:32:44.971Z,23.53
2018-04-28T10:36:47.446Z,23.58
2018-04-28T10:40:49.938Z,23.68
2018-04-28T10:44:52.395Z,23.78
2018-04-28T10:48:54.878Z,23.85
2018-04-28T10:52:57.364Z,23.95
2018-04-28T10:56:59.808Z,24.06
2018-04-28T11:01:02.291Z,24.23
2018-04-28T11:05:04.774Z,24.37
2018-04-28T11:09:07.252Z,24.50
2018-04-28T11:13:09.691Z,24.58
2018-04-28T11:17:12.203Z,24.64
2018-04-28T11:21:14.685Z,24.78
2018-04-28T11:25:17.169Z,24.89
2018-04-28T11:29:19.637Z,25.03
2018-04-28T11:33:22.115Z,25.11
2018-04-28T11:37:24.573Z,25.11
2018-04-28T11:41:27.061Z,25.15
2018-04-28T11:45:29.546Z,25.35
2018-04-28T11:49:32.048Z,25.54
2018-04-28T11:53:34.532Z,25.69
2018-04-28T11:57:37.010Z,25.83
2018-04-28T12:01:39.461Z,25.93
2018-04-28T12:05:41.961Z,26.00
2018-04-28T12:09:44.419Z,26.05
2018-04-28T12:13:46.898Z,25.99
2018-04-28T12:17:49.382Z,26.04
2018-04-28T12:21:51.872Z,26.01
2018-04-28T12:25:54.355Z,25.98
2018-04-28T12:30:08.085Z,26.05
2018-04-28T12:34:10.567Z,26.05
2018-04-28T12:38:13.025Z,26.06
2018-04-28T12:42:15.518Z,26.17
2018-04-28T12:46:18.002Z,26.12
2018-04-28T12:50:20.498Z,26.07
2018-04-28T12:54:22.963Z,26.00
2018-04-28T12:58:25.426Z,26.10
2018-04-28T13:02:27.903Z,26.12
2018-04-28T13:06:30.478Z,26.27
2018-04-28T13:10:32.935Z,26.43
2018-04-28T13:14:35.410Z,26.35
2018-04-28T13:18:37.856Z,26.19
2018-04-28T13:22:40.353Z,26.21
2018-04-28T13:26:42.823Z,26.30
2018-04-28T13:30:48.667Z,26.34
2018-04-28T13:34:51.133Z,26.33
2018-04-28T13:38:53.605Z,26.35
2018-04-28T13:42:56.128Z,26.33
2018-04-28T13:46:59.513Z,26.39
2018-04-28T13:51:01.996Z,26.43
2018-04-28T13:55:04.494Z,26.52
2018-04-28T13:59:06.966Z,26.65
2018-04-28T14:03:09.439Z,26.75
2018-04-28T14:07:11.886Z,26.82
2018-04-28T14:11:14.366Z,26.85
2018-04-28T14:15:16.837Z,26.90
2018-04-28T14:19:19.313Z,26.86
2018-04-28T14:23:21.778Z,26.87
2018-04-28T14:27:24.253Z,26.86
2018-04-28T14:31:26.719Z,26.86
2018-04-28T14:35:29.216Z,26.84
2018-04-28T14:39:31.679Z,26.84
2018-04-28T14:43:34.150Z,26.84
2018-04-28T14:47:36.623Z,26.86
2018-04-28T14:51:39.071Z,26.85
2018-04-28T14:55:41.555Z,26.80
2018-04-28T14:59:44.010Z,26.72
2018-04-28T15:03:46.486Z,26.66
2018-04-28T15:07:48.968Z,26.61
2018-04-28T15:11:51.441Z,26.56
2018-04-28T15:15:53.899Z,26.50
2018-04-28T15:19:57.298Z,26.50
2018-04-28T15:23:59.772Z,26.46
2018-04-28T15:28:02.239Z,26.44
2018-04-28T15:32:04.705Z,26.37
2018-04-28T15:36:07.176Z,26.30
2018-04-28T15:40:09.623Z,26.26
2018-04-28T15:44:12.101Z,26.25
2018-04-28T15:48:14.592Z,26.21
2018-04-28T15:52:17.039Z,26.19
2018-04-28T15:56:19.513Z,26.13
2018-04-28T16:00:22.000Z,26.08
2018-04-28T16:04:24.469Z,26.05
2018-04-28T16:08:26.936Z,26.02
2018-04-28T16:12:29.415Z,25.99
2018-04-28T16:16:31.886Z,25.98
2018-04-28T16:20:34.331Z,25.93
2018-04-28T16:24:36.814Z,25.89
2018-04-28T16:28:39.267Z,25.87
2018-04-28T16:32:41.746Z,25.83
2018-04-28T16:36:44.243Z,25.81
2018-04-28T16:40:46.721Z,25.77
2018-04-28T16:44:49.224Z,25.72
2018-04-28T16:48:51.681Z,25.64
2018-04-28T16:52:54.179Z,25.58
2018-04-28T16:56:56.668Z,25.53
2018-04-28T17:00:59.145Z,25.45
2018-04-28T17:05:01.598Z,25.39
2018-04-28T17:09:04.091Z,25.32
2018-04-28T17:13:06.541Z,25.29
2018-04-28T17:17:09.098Z,25.25
2018-04-28T17:21:11.480Z,25.18
2018-04-28T17:25:13.967Z,25.09
2018-04-28T17:29:16.427Z,25.04
2018-04-28T17:33:18.910Z,25.01
2018-04-28T17:37:21.399Z,24.95
2018-04-28T17:41:23.865Z,24.88
2018-04-28T17:45:26.342Z,24.82
2018-04-28T17:49:28.797Z,24.76
2018-04-28T17:53:31.279Z,24.69
2018-04-28T17:57:33.758Z,24.66
2018-04-28T18:01:36.238Z,24.61
2018-04-28T18:05:38.735Z,24.53
2018-04-28T18:09:41.193Z,24.47
2018-04-28T18:13:43.683Z,24.40
2018-04-28T18:17:46.143Z,24.34
2018-04-28T18:21:48.632Z,24.24
2018-04-28T18:25:51.088Z,24.18
2018-04-28T18:29:53.574Z,24.11
2018-04-28T18:33:56.058Z,24.05
2018-04-28T18:37:58.527Z,23.99
2018-04-28T18:42:01.026Z,23.90
2018-04-28T18:46:03.536Z,23.86
2018-04-28T18:50:05.984Z,23.81
2018-04-28T18:54:08.464Z,23.76
2018-04-28T18:58:10.942Z,23.70
2018-04-28T19:02:13.430Z,23.67
2018-04-28T19:06:15.881Z,23.63
2018-04-28T19:10:18.356Z,23.59
2018-04-28T19:14:20.857Z,23.56
2018-04-28T19:18:23.319Z,23.49
2018-04-28T19:22:25.798Z,23.41
2018-04-28T19:26:29.235Z,23.37
2018-04-28T19:30:31.692Z,23.33
2018-04-28T19:34:34.179Z,23.26
2018-04-28T19:38:36.660Z,23.21
2018-04-28T19:42:39.138Z,23.15
2018-04-28T19:46:41.634Z,23.10
2018-04-28T19:50:44.121Z,23.07
2018-04-28T19:54:46.598Z,23.01
2018-04-28T19:58:49.079Z,22.94
2018-04-28T20:02:51.546Z,22.88
2018-04-28T20:06:54.028Z,22.82
2018-04-28T20:10:56.511Z,22.75
2018-04-28T20:14:58.992Z,22.68
2018-04-28T20:19:01.444Z,22.62
2018-04-28T20:23:15.663Z,22.56
2018-04-28T20:27:18.145Z,22.49
2018-04-28T20:31:20.642Z,22.42
2018-04-28T20:35:23.121Z,22.33
2018-04-28T20:39:25.601Z,22.22
2018-04-28T20:43:28.073Z,22.12
2018-04-28T20:47:30.528Z,22.06
2018-04-28T20:51:33.006Z,22.05
2018-04-28T20:55:35.491Z,22.07
2018-04-28T20:59:37.975Z,22.07
2018-04-28T21:03:40.458Z,22.07
2018-04-28T21:07:42.949Z,22.06
2018-04-28T21:11:45.407Z,22.06
2018-04-28T21:15:47.899Z,22.04
2018-04-28T21:19:50.356Z,22.02
2018-04-28T21:23:52.835Z,21.98
2018-04-28T21:27:55.320Z,21.92
2018-04-28T21:31:57.800Z,21.85
2018-04-28T21:36:00.289Z,21.83
2018-04-28T21:40:02.747Z,21.82
2018-04-28T21:44:05.223Z,21.82
2018-04-28T21:48:07.707Z,21.80
2018-04-28T21:52:10.193Z,21.77
2018-04-28T21:56:12.679Z,21.74
2018-04-28T22:00:15.138Z,21.72
2018-04-28T22:04:17.627Z,21.71
2018-04-28T22:08:20.110Z,21.67
2018-04-28T22:12:22.613Z,21.66
2018-04-28T22:16:25.090Z,21.65
2018-04-28T22:20:27.572Z,21.62
2018-04-28T22:24:30.052Z,21.61
2018-04-28T22:28:32.507Z,21.61
2018-04-28T22:32:34.993Z,21.58
2018-04-28T22:36:37.479Z,21.55
2018-04-28T22:40:39.962Z,21.51
2018-04-28T22:44:42.448Z,21.49
2018-04-28T22:48:44.945Z,21.42
2018-04-28T22:52:47.394Z,21.36
2018-04-28T22:56:49.895Z,21.29
2018-04-28T23:00:52.351Z,21.22
2018-04-28T23:04:54.840Z,21.15
2018-04-28T23:08:57.285Z,21.07
2018-04-28T23:12:59.770Z,20.97
2018-04-28T23:17:02.229Z,20.88
2018-04-28T23:21:04.719Z,20.79
2018-04-28T23:25:07.201Z,20.71
2018-04-28T23:29:09.699Z,20.63
2018-04-28T23:33:12.160Z,20.57
2018-04-28T23:37:14.646Z,20.48
2018-04-28T23:41:17.127Z,20.40
2018-04-28T23:45:19.618Z,20.29
2018-04-28T23:49:22.076Z,20.19
2018-04-28T23:53:24.564Z,20.11
2018-04-28T23:57:27.098Z,20.04
